createdAt,value
2018-01-23T00:00:20.465Z,99573.55
2018-01-23T00:02:48.231Z,99576.58
2018-01-23T00:05:16.903Z,99580.50
2018-01-23T00:07:46.819Z,99585.73
2018-01-23T00:10:14.655Z,99577.91
2018-01-23T00:12:44.814Z,99584.44
2018-01-23T00:15:12.709Z,99581.40
2018-01-23T00:17:40.701Z,99585.31
2018-01-23T00:20:08.616Z,99594.88
2018-01-23T00:22:36.558Z,99595.30
2018-01-23T00:25:04.298Z,99600.97
2018-01-23T00:27:36.325Z,99601.84
2018-01-23T00:30:04.280Z,99604.03
2018-01-23T00:32:36.495Z,99610.09
2018-01-23T00:35:04.512Z,99605.30
2018-01-23T00:37:34.454Z,99615.31
2018-01-23T00:40:02.314Z,99614.02
2018-01-23T00:42:30.331Z,99617.02
2018-01-23T00:44:58.096Z,99624.39
2018-01-23T00:47:26.102Z,99626.61
2018-01-23T00:49:56.324Z,99634.01
2018-01-23T00:52:24.270Z,99629.21
2018-01-23T00:54:51.933Z,99632.30
2018-01-23T00:57:19.674Z,99631.40
2018-01-23T00:59:47.383Z,99638.34
2018-01-23T01:02:15.152Z,99637.52
2018-01-23T01:04:42.906Z,99640.14
2018-01-23T01:07:10.734Z,99646.22
2018-01-23T01:09:42.736Z,99646.24
2018-01-23T01:12:10.566Z,99646.67
2018-01-23T01:14:42.570Z,99649.30
2018-01-23T01:17:10.522Z,99650.20
2018-01-23T01:19:38.497Z,99662.41
2018-01-23T01:22:06.225Z,99667.66
2018-01-23T01:24:33.953Z,99677.64
2018-01-23T01:27:01.708Z,99674.61
2018-01-23T01:29:29.767Z,99677.22
2018-01-23T01:31:57.789Z,99673.78
2018-01-23T01:34:25.705Z,99675.95
2018-01-23T01:36:55.836Z,99677.70
2018-01-23T01:39:23.788Z,99682.91
2018-01-23T01:41:51.829Z,99692.90
2018-01-23T01:44:20.049Z,99696.37
2018-01-23T01:46:49.957Z,99700.72
2018-01-23T01:49:18.026Z,99695.07
2018-01-23T01:51:46.198Z,99698.11
2018-01-23T01:54:18.176Z,99698.56
2018-01-23T01:56:50.579Z,99695.05
2018-01-23T01:59:18.928Z,99697.27
2018-01-23T02:01:46.830Z,99698.12
2018-01-23T02:04:14.796Z,99701.59
2018-01-23T02:06:43.033Z,99703.80
2018-01-23T02:09:13.044Z,99708.59
2018-01-23T02:11:40.987Z,99708.59
2018-01-23T02:14:09.055Z,99702.92
2018-01-23T02:16:37.743Z,99700.74
2018-01-23T02:19:07.828Z,99703.37
2018-01-23T02:21:35.574Z,99708.59
2018-01-23T02:24:07.612Z,99712.95
2018-01-23T02:26:35.430Z,99712.53
2018-01-23T02:29:03.453Z,99709.47
2018-01-23T02:31:31.347Z,99710.77
2018-01-23T02:33:59.027Z,99705.11
2018-01-23T02:36:29.245Z,99697.76
2018-01-23T02:38:57.032Z,99707.31
2018-01-23T02:41:25.038Z,99710.77
2018-01-23T02:43:52.990Z,99710.34
2018-01-23T02:46:23.043Z,99709.49
2018-01-23T02:48:50.871Z,99709.52
2018-01-23T02:51:18.611Z,99706.88
2018-01-23T02:53:50.623Z,99714.70
2018-01-23T02:56:22.990Z,99719.08
2018-01-23T02:58:50.768Z,99719.06
2018-01-23T03:01:20.548Z,99724.30
2018-01-23T03:03:48.487Z,99722.53
2018-01-23T03:06:16.253Z,99723.01
2018-01-23T03:08:44.167Z,99730.36
2018-01-23T03:11:12.169Z,99732.11
2018-01-23T03:13:40.422Z,99729.50
2018-01-23T03:16:08.484Z,99738.23
2018-01-23T03:18:40.329Z,99735.63
2018-01-23T03:21:16.655Z,99739.94
2018-01-23T03:23:44.581Z,99738.66
2018-01-23T03:26:16.744Z,99735.20
2018-01-23T03:28:44.587Z,99730.86
2018-01-23T03:31:14.735Z,99732.17
2018-01-23T03:33:42.802Z,99738.27
2018-01-23T03:36:10.740Z,99742.21
2018-01-23T03:38:38.704Z,99738.75
2018-01-23T03:41:10.737Z,99748.70
2018-01-23T03:43:38.480Z,99752.17
2018-01-23T03:46:06.244Z,99752.22
2018-01-23T03:48:34.007Z,99751.32
2018-01-23T03:51:01.959Z,99757.84
2018-01-23T03:53:32.290Z,99755.23
2018-01-23T03:56:00.359Z,99761.30
2018-01-23T03:58:32.426Z,99763.06
2018-01-23T04:01:00.243Z,99770.00
2018-01-23T04:03:28.262Z,99769.15
2018-01-23T04:05:56.198Z,99774.36
2018-01-23T04:08:23.864Z,99771.30
2018-01-23T04:10:51.606Z,99771.33
2018-01-23T04:13:19.823Z,99776.55
2018-01-23T04:15:48.624Z,99773.91
2018-01-23T04:18:20.746Z,99771.30
2018-01-23T04:20:49.374Z,99778.28
2018-01-23T04:23:17.306Z,99783.52
2018-01-23T04:25:47.406Z,99790.02
2018-01-23T04:28:15.121Z,99790.04
2018-01-23T04:30:42.954Z,99794.35
2018-01-23T04:33:10.959Z,99803.48
2018-01-23T04:35:38.784Z,99803.06
2018-01-23T04:38:06.791Z,99803.94
2018-01-23T04:40:34.873Z,99805.64
2018-01-23T04:43:02.834Z,99809.16
2018-01-23T04:45:30.821Z,99811.77
2018-01-23T04:47:59.077Z,99820.02
2018-01-23T04:50:26.902Z,99821.77
2018-01-23T04:52:58.910Z,99820.89
2018-01-23T04:55:26.736Z,99817.42
2018-01-23T04:57:54.499Z,99821.74
2018-01-23T05:00:22.519Z,99823.92
2018-01-23T05:02:50.232Z,99827.81
2018-01-23T05:05:18.145Z,99826.09
2018-01-23T05:07:46.415Z,99826.50
2018-01-23T05:10:16.333Z,99830.84
2018-01-23T05:12:44.169Z,99826.07
2018-01-23T05:15:16.233Z,99826.95
2018-01-23T05:17:44.232Z,99836.95
2018-01-23T05:20:12.188Z,99833.92
2018-01-23T05:22:40.127Z,99836.53
2018-01-23T05:25:08.142Z,99840.42
2018-01-23T05:27:35.913Z,99841.27
2018-01-23T05:30:03.929Z,99846.09
2018-01-23T05:32:31.944Z,99839.56
2018-01-23T05:34:59.883Z,99849.50
2018-01-23T05:37:30.076Z,99849.94
2018-01-23T05:39:57.808Z,99850.30
2018-01-23T05:42:25.653Z,99850.66
2018-01-23T05:44:53.632Z,99853.63
2018-01-23T05:47:21.738Z,99855.75
2018-01-23T05:49:49.651Z,99860.06
2018-01-23T05:52:17.592Z,99867.00
2018-01-23T05:54:45.622Z,99860.86
2018-01-23T05:57:13.747Z,99864.38
2018-01-23T05:59:45.764Z,99874.55
2018-01-23T06:02:13.576Z,99882.72
2018-01-23T06:04:45.907Z,99876.27
2018-01-23T06:07:14.024Z,99878.94
2018-01-23T06:09:41.730Z,99879.71
2018-01-23T06:12:10.103Z,99886.17
2018-01-23T06:14:37.929Z,99884.47
2018-01-23T06:17:06.123Z,99883.77
2018-01-23T06:19:36.167Z,99889.73
2018-01-23T06:22:03.926Z,99889.70
2018-01-23T06:24:31.906Z,99896.25
2018-01-23T06:27:04.066Z,99904.65
2018-01-23T06:29:31.830Z,99903.88
2018-01-23T06:31:59.910Z,99901.75
2018-01-23T06:34:30.202Z,99909.19
2018-01-23T06:36:58.552Z,99909.13
2018-01-23T06:39:26.308Z,99909.16
2018-01-23T06:41:54.901Z,99917.48
2018-01-23T06:44:22.717Z,99923.14
2018-01-23T06:46:50.525Z,99930.58
2018-01-23T06:49:20.748Z,99926.67
2018-01-23T06:51:48.478Z,99932.33
2018-01-23T06:54:19.307Z,99934.06
2018-01-23T06:56:48.068Z,99942.03
2018-01-23T06:59:15.957Z,99940.72
2018-01-23T07:01:44.342Z,99953.66
2018-01-23T07:04:12.218Z,99954.95
2018-01-23T07:06:40.325Z,99960.64
2018-01-23T07:09:13.043Z,99968.91
2018-01-23T07:11:40.910Z,99968.19
2018-01-23T07:14:10.177Z,99966.05
2018-01-23T07:16:38.110Z,99967.95
2018-01-23T07:19:05.868Z,99967.14
2018-01-23T07:21:36.091Z,99968.94
2018-01-23T07:24:03.841Z,99967.25
2018-01-23T07:26:33.167Z,99965.52
2018-01-23T07:29:00.909Z,99964.62
2018-01-23T07:31:28.745Z,99968.91
2018-01-23T07:33:58.899Z,99975.73
2018-01-23T07:36:27.577Z,99981.57
2018-01-23T07:38:55.533Z,99979.50
2018-01-23T07:41:23.460Z,99982.66
2018-01-23T07:43:55.662Z,99986.22
2018-01-23T07:46:23.555Z,99988.09
2018-01-23T07:48:51.324Z,99993.42
2018-01-23T07:51:23.378Z,99995.23
2018-01-23T07:53:51.326Z,99992.30
2018-01-23T07:56:19.363Z,99998.95
2018-01-23T07:58:49.458Z,100000.40
2018-01-23T08:01:18.244Z,100006.64
2018-01-23T08:03:46.361Z,100009.64
2018-01-23T08:06:13.991Z,100004.48
2018-01-23T08:08:41.738Z,100010.97
2018-01-23T08:11:09.536Z,100009.84
2018-01-23T08:13:41.568Z,100008.81
2018-01-23T08:16:09.332Z,100013.70
2018-01-23T08:18:37.386Z,100016.14
2018-01-23T08:21:07.353Z,100016.47
2018-01-23T08:23:35.385Z,100021.11
2018-01-23T08:26:09.601Z,100029.88
2018-01-23T08:28:37.361Z,100035.76
2018-01-23T08:31:06.042Z,100038.72
2018-01-23T08:33:33.848Z,100035.97
2018-01-23T08:36:10.184Z,100042.77
2018-01-23T08:38:37.943Z,100051.72
2018-01-23T08:41:06.631Z,100052.52
2018-01-23T08:43:34.397Z,100055.30
2018-01-23T08:46:02.166Z,100051.07
2018-01-23T08:48:35.064Z,100047.92
2018-01-23T08:51:02.944Z,100044.63
2018-01-23T08:53:30.673Z,100043.10
2018-01-23T08:55:59.369Z,100050.55
2018-01-23T08:58:27.179Z,100046.22
2018-01-23T09:00:55.868Z,100044.99
2018-01-23T09:03:23.571Z,100044.08
2018-01-23T09:05:51.526Z,100043.26
2018-01-23T09:08:19.408Z,100042.55
2018-01-23T09:10:47.229Z,100045.70
2018-01-23T09:13:14.980Z,100043.61
2018-01-23T09:15:45.204Z,100045.42
2018-01-23T09:18:12.925Z,100039.77
2018-01-23T09:20:40.745Z,100045.14
2018-01-23T09:23:08.450Z,100042.05
2018-01-23T09:25:36.209Z,100043.93
2018-01-23T09:28:06.144Z,100046.56
2018-01-23T09:30:33.894Z,100035.66
2018-01-23T09:33:01.797Z,100037.44
2018-01-23T09:35:31.886Z,100044.00
2018-01-23T09:37:59.753Z,100036.94
2018-01-23T09:40:31.944Z,100032.82
2018-01-23T09:43:00.403Z,100038.35
2018-01-23T09:45:28.209Z,100028.01
2018-01-23T09:47:55.932Z,100029.00
2018-01-23T09:50:23.716Z,100021.91
2018-01-23T09:52:51.764Z,100023.48
2018-01-23T09:55:19.526Z,100027.62
2018-01-23T09:57:47.355Z,100018.56
2018-01-23T10:00:15.065Z,100026.00
2018-01-23T10:02:42.832Z,100025.44
2018-01-23T10:05:10.580Z,100029.16
2018-01-23T10:07:38.389Z,100029.77
2018-01-23T10:10:06.411Z,100027.56
2018-01-23T10:12:34.495Z,100037.44
2018-01-23T10:15:04.464Z,100028.03
2018-01-23T10:17:32.170Z,100026.00
2018-01-23T10:20:04.233Z,100025.33
2018-01-23T10:22:32.066Z,100027.53
2018-01-23T10:25:00.732Z,100022.55
2018-01-23T10:27:35.515Z,100023.09
2018-01-23T10:30:03.288Z,100022.48
2018-01-23T10:32:31.048Z,100025.88
2018-01-23T10:35:00.961Z,100026.12
2018-01-23T10:37:30.874Z,100033.79
2018-01-23T10:39:58.529Z,100025.59
2018-01-23T10:42:26.945Z,100029.30
2018-01-23T10:44:58.546Z,100027.83
2018-01-23T10:47:26.179Z,100040.53
2018-01-23T10:49:54.920Z,100032.83
2018-01-23T10:52:22.646Z,100029.16
2018-01-23T10:54:50.962Z,100032.80
2018-01-23T10:57:19.741Z,100037.78
2018-01-23T10:59:51.802Z,100032.86
2018-01-23T11:02:20.495Z,100027.08
2018-01-23T11:04:50.250Z,100031.28
2018-01-23T11:07:18.340Z,100032.59
2018-01-23T11:09:46.249Z,100031.48
2018-01-23T11:12:14.195Z,100026.89
2018-01-23T11:14:42.171Z,100027.05
2018-01-23T11:17:10.330Z,100030.69
2018-01-23T11:19:38.169Z,100032.95
2018-01-23T11:22:06.182Z,100034.56
2018-01-23T11:24:34.249Z,100037.64
2018-01-23T11:27:02.313Z,100036.72
2018-01-23T11:29:30.206Z,100040.17
2018-01-23T11:31:57.970Z,100032.85
2018-01-23T11:34:28.195Z,100043.36
2018-01-23T11:36:55.958Z,100040.24
2018-01-23T11:39:25.883Z,100033.97
2018-01-23T11:41:56.099Z,100029.21
2018-01-23T11:44:23.833Z,100025.94
2018-01-23T11:46:51.688Z,100024.42
2018-01-23T11:49:19.390Z,100018.16
2018-01-23T11:51:47.455Z,100020.16
2018-01-23T11:54:15.260Z,100012.91
2018-01-23T11:56:43.290Z,100023.17
2018-01-23T11:59:11.165Z,100017.17
2018-01-23T12:01:43.136Z,100017.47
2018-01-23T12:04:10.906Z,100016.29
2018-01-23T12:06:42.953Z,100014.09
2018-01-23T12:09:12.896Z,100019.83
2018-01-23T12:11:40.632Z,100020.91
2018-01-23T12:14:08.458Z,100017.77
2018-01-23T12:16:36.274Z,100014.41
2018-01-23T12:19:06.685Z,100025.34
2018-01-23T12:21:34.505Z,100028.17
2018-01-23T12:24:04.682Z,100031.52
2018-01-23T12:26:32.647Z,100028.78
2018-01-23T12:29:00.539Z,100027.73
2018-01-23T12:31:28.516Z,100032.28
2018-01-23T12:33:56.509Z,100039.23
2018-01-23T12:36:26.580Z,100033.20
2018-01-23T12:38:54.442Z,100031.66
2018-01-23T12:41:26.398Z,100034.61
2018-01-23T12:43:56.355Z,100037.72
2018-01-23T12:46:23.985Z,100038.66
2018-01-23T12:48:55.843Z,100044.86
2018-01-23T12:51:24.222Z,100045.90
2018-01-23T12:53:56.283Z,100043.46
2018-01-23T12:56:24.060Z,100043.19
2018-01-23T12:58:52.429Z,100040.66
2018-01-23T13:01:20.379Z,100045.53
2018-01-23T13:03:48.263Z,100054.86
2018-01-23T13:06:16.027Z,100061.09
2018-01-23T13:08:43.853Z,100060.35
2018-01-23T13:11:16.156Z,100059.59
2018-01-23T13:13:44.851Z,100063.77
2018-01-23T13:16:15.690Z,100068.64
2018-01-23T13:18:43.455Z,100073.67
2018-01-23T13:21:11.278Z,100081.71
2018-01-23T13:23:39.046Z,100087.72
2018-01-23T13:26:10.737Z,100088.69
2018-01-23T13:28:38.903Z,100090.59
2018-01-23T13:31:06.893Z,100095.05
2018-01-23T13:33:34.535Z,100102.26
2018-01-23T13:36:02.410Z,100090.89
2018-01-23T13:38:30.140Z,100092.74
2018-01-23T13:40:58.247Z,100099.38
2018-01-23T13:43:28.344Z,100102.14
2018-01-23T13:45:56.294Z,100096.67
2018-01-23T13:48:28.293Z,100099.03
2018-01-23T13:50:56.151Z,100113.17
2018-01-23T13:53:26.155Z,100115.14
2018-01-23T13:55:54.099Z,100111.86
2018-01-23T13:58:22.135Z,100108.44
2018-01-23T14:00:50.003Z,100113.28
2018-01-23T14:03:17.754Z,100112.63
2018-01-23T14:05:47.916Z,100117.99
2018-01-23T14:08:17.806Z,100122.55
2018-01-23T14:10:45.635Z,100121.89
2018-01-23T14:13:14.536Z,100132.56
2018-01-23T14:15:44.471Z,100141.20
2018-01-23T14:18:12.288Z,100144.30
2018-01-23T14:20:40.052Z,100144.09
2018-01-23T14:23:07.688Z,100151.30
2018-01-23T14:25:39.815Z,100152.86
2018-01-23T14:28:09.728Z,100153.53
2018-01-23T14:30:37.664Z,100158.13
2018-01-23T14:33:07.755Z,100162.20
2018-01-23T14:35:35.792Z,100168.08
2018-01-23T14:38:03.510Z,100164.78
2018-01-23T14:40:31.621Z,100174.97
2018-01-23T14:43:00.067Z,100175.13
2018-01-23T14:45:30.110Z,100182.66
2018-01-23T14:47:58.177Z,100181.88
2018-01-23T14:50:30.990Z,100189.64
2018-01-23T14:52:58.614Z,100191.85
2018-01-23T14:55:26.376Z,100195.05
2018-01-23T14:57:54.006Z,100205.63
2018-01-23T15:00:23.616Z,100212.30
2018-01-23T15:02:55.313Z,100204.30
2018-01-23T15:05:23.776Z,100213.54
2018-01-23T15:07:53.975Z,100221.02
2018-01-23T15:10:21.789Z,100227.63
2018-01-23T15:12:50.679Z,100230.34
2018-01-23T15:15:19.365Z,100234.04
2018-01-23T15:17:47.267Z,100239.34
2018-01-23T15:20:17.363Z,100240.25
2018-01-23T15:22:45.319Z,100247.80
2018-01-23T15:25:13.385Z,100240.96
2018-01-23T15:27:41.322Z,100247.63
2018-01-23T15:30:09.138Z,100253.41
2018-01-23T15:32:37.882Z,100254.64
2018-01-23T15:35:07.938Z,100259.49
2018-01-23T15:37:36.003Z,100259.61
2018-01-23T15:40:03.875Z,100261.41
2018-01-23T15:42:32.018Z,100273.68
2018-01-23T15:45:00.108Z,100275.38
2018-01-23T15:47:32.290Z,100272.75
2018-01-23T15:50:02.219Z,100279.84
2018-01-23T15:52:30.078Z,100278.64
2018-01-23T15:54:57.793Z,100286.98
2018-01-23T15:57:25.558Z,100293.72
2018-01-23T15:59:53.273Z,100301.63
2018-01-23T16:02:21.090Z,100300.72
2018-01-23T16:04:51.288Z,100307.34
2018-01-23T16:07:20.121Z,100313.54
2018-01-23T16:09:48.062Z,100316.29
2018-01-23T16:12:15.952Z,100317.23
2018-01-23T16:14:44.020Z,100318.41
2018-01-23T16:17:12.085Z,100331.11
2018-01-23T16:19:40.291Z,100325.47
2018-01-23T16:22:07.909Z,100339.48
2018-01-23T16:24:35.732Z,100339.13
2018-01-23T16:27:03.887Z,100347.03
2018-01-23T16:29:33.887Z,100349.73
2018-01-23T16:32:01.779Z,100353.30
2018-01-23T16:34:29.818Z,100355.47
2018-01-23T16:36:59.609Z,100356.84
2018-01-23T16:39:27.632Z,100360.80
2018-01-23T16:41:56.363Z,100363.86
2018-01-23T16:44:26.579Z,100368.05
2018-01-23T16:46:56.595Z,100372.41
2018-01-23T16:49:24.824Z,100380.77
2018-01-23T16:51:52.636Z,100376.02
2018-01-23T16:54:20.358Z,100378.69
2018-01-23T16:56:49.232Z,100385.27
2018-01-23T16:59:17.273Z,100392.28
2018-01-23T17:01:49.177Z,100392.76
2018-01-23T17:04:18.053Z,100398.88
2018-01-23T17:06:46.241Z,100403.27
2018-01-23T17:09:14.060Z,100408.97
2018-01-23T17:11:42.078Z,100411.64
2018-01-23T17:14:09.891Z,100412.49
2018-01-23T17:16:40.781Z,100410.37
2018-01-23T17:19:08.660Z,100422.16
2018-01-23T17:21:36.820Z,100425.23
2018-01-23T17:24:08.599Z,100429.16
2018-01-23T17:26:41.613Z,100427.89
2018-01-23T17:29:10.560Z,100429.19
2018-01-23T17:31:38.367Z,100433.98
2018-01-23T17:34:06.190Z,100440.09
2018-01-23T17:36:34.356Z,100450.16
2018-01-23T17:39:02.420Z,100449.33
2018-01-23T17:41:30.414Z,100450.65
2018-01-23T17:43:58.748Z,100447.17
2018-01-23T17:46:26.450Z,100458.50
2018-01-23T17:48:54.333Z,100456.77
2018-01-23T17:51:27.202Z,100455.89
2018-01-23T17:53:55.014Z,100461.16
2018-01-23T17:56:22.779Z,100459.43
2018-01-23T17:58:50.896Z,100469.02
2018-01-23T18:01:23.481Z,100472.11
2018-01-23T18:03:53.699Z,100471.67
2018-01-23T18:06:22.075Z,100480.39
2018-01-23T18:08:52.015Z,100486.95
2018-01-23T18:11:19.767Z,100490.47
2018-01-23T18:13:47.589Z,100490.89
2018-01-23T18:16:15.404Z,100499.59
2018-01-23T18:18:45.815Z,100498.73
2018-01-23T18:21:16.075Z,100506.60
2018-01-23T18:23:46.450Z,100503.98
2018-01-23T18:26:17.410Z,100508.36
2018-01-23T18:28:45.231Z,100509.20
2018-01-23T18:31:16.313Z,100512.72
2018-01-23T18:33:48.388Z,100517.92
2018-01-23T18:36:17.981Z,100519.66
2018-01-23T18:38:46.666Z,100518.83
2018-01-23T18:41:14.635Z,100525.36
2018-01-23T18:43:42.674Z,100527.98
2018-01-23T18:46:10.881Z,100534.08
2018-01-23T18:48:40.678Z,100532.80
2018-01-23T18:51:10.171Z,100531.48
2018-01-23T18:53:38.362Z,100531.05
2018-01-23T18:56:06.428Z,100535.86
2018-01-23T18:58:34.468Z,100540.20
2018-01-23T19:01:04.546Z,100545.02
2018-01-23T19:03:39.749Z,100550.22
2018-01-23T19:06:07.949Z,100551.12
2018-01-23T19:08:36.613Z,100554.61
2018-01-23T19:11:04.692Z,100554.61
2018-01-23T19:13:34.158Z,100558.54
2018-01-23T19:16:04.335Z,100558.11
2018-01-23T19:18:36.190Z,100560.27
2018-01-23T19:21:04.166Z,100561.59
2018-01-23T19:23:32.145Z,100562.91
2018-01-23T19:26:00.301Z,100567.70
2018-01-23T19:28:28.126Z,100564.22
2018-01-23T19:30:56.320Z,100560.73
2018-01-23T19:33:24.507Z,100562.03
2018-01-23T19:35:52.328Z,100566.83
2018-01-23T19:38:20.169Z,100569.89
2018-01-23T19:40:47.880Z,100576.43
2018-01-23T19:43:15.699Z,100566.44
2018-01-23T19:45:48.604Z,100569.93
2018-01-23T19:48:16.404Z,100575.16
2018-01-23T19:50:46.592Z,100577.34
2018-01-23T19:53:14.457Z,100579.13
2018-01-23T19:55:46.382Z,100578.69
2018-01-23T19:58:15.062Z,100590.02
2018-01-23T20:00:43.830Z,100581.33
2018-01-23T20:03:14.015Z,100587.86
2018-01-23T20:05:42.041Z,100596.14
2018-01-23T20:08:10.000Z,100590.91
2018-01-23T20:10:38.043Z,100591.78
2018-01-23T20:13:06.280Z,100593.11
2018-01-23T20:15:34.640Z,100599.64
2018-01-23T20:18:02.398Z,100590.94
2018-01-23T20:20:31.138Z,100603.56
2018-01-23T20:23:01.069Z,100608.81
2018-01-23T20:25:28.884Z,100608.38
2018-01-23T20:27:59.376Z,100614.45
2018-01-23T20:30:27.681Z,100622.31
2018-01-23T20:33:00.355Z,100622.31
2018-01-23T20:35:28.197Z,100629.28
2018-01-23T20:37:55.937Z,100631.48
2018-01-23T20:40:23.828Z,100631.52
2018-01-23T20:42:51.952Z,100629.33
2018-01-23T20:45:19.801Z,100634.13
2018-01-23T20:47:49.396Z,100639.77
2018-01-23T20:50:17.340Z,100647.19
2018-01-23T20:52:45.407Z,100642.81
2018-01-23T20:55:13.875Z,100647.64
2018-01-23T20:57:44.561Z,100654.18
2018-01-23T21:00:12.275Z,100652.03
2018-01-23T21:02:40.311Z,100649.83
2018-01-23T21:05:10.515Z,100658.55
2018-01-23T21:07:38.323Z,100658.13
2018-01-23T21:10:08.238Z,100662.47
2018-01-23T21:12:36.056Z,100666.39
2018-01-23T21:15:03.895Z,100668.13
2018-01-23T21:17:31.790Z,100671.19
2018-01-23T21:19:59.625Z,100666.41
2018-01-23T21:22:31.921Z,100676.87
2018-01-23T21:24:59.756Z,100683.41
2018-01-23T21:27:30.563Z,100685.14
2018-01-23T21:30:02.601Z,100694.70
2018-01-23T21:32:30.565Z,100690.80
2018-01-23T21:34:58.776Z,100702.55
2018-01-23T21:37:30.561Z,100699.07
2018-01-23T21:39:58.751Z,100696.90
2018-01-23T21:42:27.552Z,100704.73
2018-01-23T21:44:55.656Z,100708.66
2018-01-23T21:47:25.860Z,100715.63
2018-01-23T21:49:53.852Z,100721.73
2018-01-23T21:52:22.048Z,100725.23
2018-01-23T21:54:50.543Z,100727.41
2018-01-23T21:57:19.059Z,100729.58
2018-01-23T21:59:47.326Z,100732.20
2018-01-23T22:02:20.147Z,100737.86
2018-01-23T22:04:49.280Z,100737.86
2018-01-23T22:07:17.379Z,100743.09
2018-01-23T22:09:45.469Z,100748.35
2018-01-23T22:12:14.317Z,100752.70
2018-01-23T22:14:44.508Z,100759.67
2018-01-23T22:17:14.421Z,100758.36
2018-01-23T22:19:44.671Z,100761.83
2018-01-23T22:22:16.670Z,100766.63
2018-01-23T22:24:44.329Z,100770.13
2018-01-23T22:27:12.118Z,100771.41
2018-01-23T22:29:42.109Z,100774.04
2018-01-23T22:32:12.068Z,100772.73
2018-01-23T22:34:39.893Z,100775.36
2018-01-23T22:37:07.732Z,100771.89
2018-01-23T22:39:35.697Z,100769.70
2018-01-23T22:42:07.690Z,100777.98
2018-01-23T22:44:35.458Z,100777.98
2018-01-23T22:47:03.391Z,100776.70
2018-01-23T22:49:32.201Z,100773.19
2018-01-23T22:52:00.026Z,100779.73
2018-01-23T22:54:27.792Z,100783.25
2018-01-23T22:56:55.515Z,100786.30
2018-01-23T22:59:23.394Z,100792.41
2018-01-23T23:01:51.138Z,100795.44
2018-01-23T23:04:18.852Z,100798.52
2018-01-23T23:06:46.669Z,100798.06
2018-01-23T23:09:14.947Z,100798.49
2018-01-23T23:11:42.749Z,100795.88
2018-01-23T23:14:12.931Z,100792.85
2018-01-23T23:16:41.916Z,100796.78
2018-01-23T23:19:09.869Z,100800.28
2018-01-23T23:21:37.933Z,100800.28
2018-01-23T23:24:06.000Z,100806.79
2018-01-23T23:26:37.013Z,100799.41
2018-01-23T23:29:05.038Z,100811.17
2018-01-23T23:31:37.148Z,100808.14
2018-01-23T23:34:05.096Z,100805.97
2018-01-23T23:36:33.162Z,100814.23
2018-01-23T23:39:01.518Z,100821.20
2018-01-23T23:41:29.564Z,100812.06
2018-01-23T23:43:57.659Z,100817.30
2018-01-23T23:46:25.714Z,100820.35
2018-01-23T23:48:53.783Z,100825.58
2018-01-23T23:51:21.847Z,100823.86
2018-01-23T23:53:49.946Z,100826.02
2018-01-23T23:56:18.253Z,100828.19
2018-01-23T23:58:48.656Z,100826.45
